Time;durP1;ratioP1;P1;durP2;ratioP2;P2;SDS_P1;SDS_P2;PMS_P1;PMS_P2;Temp;Humidity;BMP_temperature;BMP_pressure;BME280_temperature;BME280_humidity;BME280_pressure;Samples;Min_cycle;Max_cycle;Signal;HPM_P1;HPM_P2
2022/04/04 00:01:25;;;;;;;5.25;2.08;;;4.30;99.90;;;;;;4999406;28;20042;-73
2022/04/04 00:03:51;;;;;;;5.15;1.90;;;4.20;99.90;;;;;;5032270;28;20116;-73
2022/04/04 00:06:16;;;;;;;4.32;2.05;;;4.10;99.90;;;;;;4999566;28;20490;-73
2022/04/04 00:08:42;;;;;;;4.75;2.00;;;4.10;99.90;;;;;;5013787;28;20121;-73
2022/04/04 00:11:08;;;;;;;4.70;2.15;;;4.10;99.90;;;;;;5015612;28;20102;-73
2022/04/04 00:13:34;;;;;;;4.40;2.05;;;4.10;99.90;;;;;;4998387;28;20100;-73
2022/04/04 00:15:59;;;;;;;5.50;1.73;;;4.00;99.90;;;;;;5015447;28;20038;-73
2022/04/04 00:18:25;;;;;;;4.65;1.95;;;4.10;99.90;;;;;;4997936;28;20033;-73
2022/04/04 00:20:51;;;;;;;5.47;2.20;;;4.10;99.90;;;;;;4998262;28;20397;-72
2022/04/04 00:23:17;;;;;;;6.20;2.50;;;4.10;99.90;;;;;;5014419;28;20146;-73
2022/04/04 00:25:45;;;;;;;5.72;2.10;;;4.00;99.90;;;;;;4998928;28;20116;-73
2022/04/04 00:28:12;;;;;;;5.50;2.40;;;4.10;99.90;;;;;;4998062;28;20068;-73
2022/04/04 00:30:38;;;;;;;6.60;2.60;;;4.10;99.90;;;;;;5015389;28;20374;-73
2022/04/04 00:33:07;;;;;;;8.02;2.85;;;4.10;99.90;;;;;;4997188;28;20037;-73
2022/04/04 00:35:33;;;;;;;8.90;3.20;;;4.00;99.90;;;;;;5015271;28;20041;-73
2022/04/04 00:38:00;;;;;;;6.55;2.90;;;4.00;99.90;;;;;;5014253;28;20045;-73
2022/04/04 00:40:25;;;;;;;6.78;2.47;;;4.10;99.90;;;;;;5015016;28;20040;-73
2022/04/04 00:42:52;;;;;;;7.22;3.70;;;4.10;99.90;;;;;;5017063;28;20397;-73
2022/04/04 00:45:17;;;;;;;4.65;2.10;;;4.10;99.90;;;;;;5002613;28;20037;-73
2022/04/04 00:47:43;;;;;;;6.57;2.75;;;4.00;99.90;;;;;;4998690;28;20449;-73
2022/04/04 00:50:09;;;;;;;5.95;2.72;;;4.00;99.90;;;;;;5010429;28;20045;-73
2022/04/04 00:52:34;;;;;;;7.97;2.80;;;4.10;99.90;;;;;;5017642;28;20041;-73
2022/04/04 00:55:00;;;;;;;3.63;1.80;;;4.10;99.90;;;;;;5002593;28;20516;-73
2022/04/04 00:57:27;;;;;;;5.80;2.30;;;4.10;99.90;;;;;;5016803;28;20092;-74
2022/04/04 00:59:53;;;;;;;8.45;3.63;;;4.10;99.90;;;;;;5000454;28;20045;-74
2022/04/04 01:02:19;;;;;;;6.70;3.47;;;4.00;99.90;;;;;;5019011;28;20029;-73
2022/04/04 01:04:45;;;;;;;6.30;2.30;;;4.00;99.90;;;;;;4999173;28;20087;-73
2022/04/04 01:07:10;;;;;;;5.57;2.15;;;4.10;99.90;;;;;;5001213;28;20045;-73
2022/04/04 01:09:36;;;;;;;6.85;2.72;;;4.10;99.90;;;;;;5018065;28;20064;-73
2022/04/04 01:12:10;;;;;;;6.15;2.38;;;4.10;99.90;;;;;;5001468;28;20107;-74
2022/04/04 01:14:41;;;;;;;4.82;2.00;;;4.10;99.90;;;;;;5002378;28;20506;-74
2022/04/04 01:17:08;;;;;;;8.70;3.20;;;4.20;99.90;;;;;;4999761;28;20104;-73
2022/04/04 01:19:34;;;;;;;7.82;3.50;;;4.10;99.90;;;;;;5018537;28;20042;-73
2022/04/04 01:22:04;;;;;;;9.05;3.05;;;4.10;99.90;;;;;;5001261;28;20516;-74
2022/04/04 01:24:30;;;;;;;5.82;2.92;;;4.10;99.90;;;;;;5018196;28;20045;-74
2022/04/04 01:26:55;;;;;;;7.25;3.00;;;4.10;99.90;;;;;;5001374;28;20038;-73
2022/04/04 01:29:21;;;;;;;8.07;3.72;;;4.20;99.90;;;;;;5017267;28;20043;-74
2022/04/04 01:31:48;;;;;;;6.95;3.80;;;4.20;99.90;;;;;;5017470;28;20071;-74
2022/04/04 01:34:14;;;;;;;5.65;2.85;;;4.20;99.90;;;;;;5002124;28;20041;-73
2022/04/04 01:36:39;;;;;;;6.53;3.15;;;4.20;99.90;;;;;;5016517;28;20056;-74
2022/04/04 01:39:05;;;;;;;7.72;3.88;;;4.30;99.90;;;;;;5016992;28;20496;-73
2022/04/04 01:41:30;;;;;;;7.20;3.42;;;4.40;99.90;;;;;;5017918;28;20033;-74
2022/04/04 01:43:56;;;;;;;7.18;4.18;;;4.30;99.90;;;;;;5000762;28;20038;-74
2022/04/04 01:46:24;;;;;;;8.32;4.18;;;4.30;99.90;;;;;;5018212;28;20041;-74
2022/04/04 01:48:51;;;;;;;8.63;4.95;;;4.30;99.90;;;;;;5000554;28;20041;-74
2022/04/04 01:51:17;;;;;;;7.72;3.78;;;4.40;99.90;;;;;;5017693;28;20076;-74
2022/04/04 01:53:43;;;;;;;8.63;4.30;;;4.40;99.90;;;;;;5015978;28;20042;-74
2022/04/04 01:56:10;;;;;;;13.02;8.45;;;4.40;99.90;;;;;;5001642;28;20055;-74
2022/04/04 01:58:35;;;;;;;6.72;3.45;;;4.40;99.90;;;;;;5000271;28;20041;-74
2022/04/04 02:01:03;;;;;;;10.75;5.55;;;4.40;99.90;;;;;;5001288;28;20053;-74
2022/04/04 02:03:31;;;;;;;10.15;6.25;;;4.50;99.90;;;;;;5016620;28;20043;-74
2022/04/04 02:05:58;;;;;;;9.70;6.40;;;4.50;99.90;;;;;;5017550;28;20041;-74
2022/04/04 02:08:24;;;;;;;11.40;6.63;;;4.60;99.90;;;;;;4999637;28;20164;-74
2022/04/04 02:10:50;;;;;;;10.30;6.80;;;4.60;99.90;;;;;;5016686;28;20128;-74
2022/04/04 02:13:15;;;;;;;9.98;5.88;;;4.60;99.90;;;;;;5016455;28;20033;-74
2022/04/04 02:15:41;;;;;;;10.27;5.10;;;4.60;99.90;;;;;;5017346;28;20049;-74
2022/04/04 02:18:07;;;;;;;13.10;7.53;;;4.60;99.90;;;;;;5000015;28;20382;-74
2022/04/04 02:20:33;;;;;;;11.70;6.13;;;4.60;99.90;;;;;;5000913;28;20428;-74
2022/04/04 02:23:00;;;;;;;11.02;6.55;;;4.60;99.90;;;;;;4999874;28;20417;-74
2022/04/04 02:25:26;;;;;;;13.13;7.35;;;4.60;99.90;;;;;;5017417;28;20064;-74
2022/04/04 02:27:51;;;;;;;11.75;7.40;;;4.70;99.90;;;;;;5016092;28;20493;-74
2022/04/04 02:30:17;;;;;;;9.07;4.63;;;4.60;99.90;;;;;;5000996;28;20049;-74
2022/04/04 02:32:43;;;;;;;11.50;7.63;;;4.70;99.90;;;;;;5016043;28;20088;-74
2022/04/04 02:35:08;;;;;;;11.40;6.95;;;4.70;99.90;;;;;;5016284;28;20045;-74
2022/04/04 02:37:34;;;;;;;13.23;7.70;;;4.70;99.90;;;;;;5014797;28;20033;-74
2022/04/04 02:40:00;;;;;;;12.75;7.53;;;4.70;99.90;;;;;;5000462;28;20464;-74
2022/04/04 02:42:26;;;;;;;11.07;6.15;;;4.70;99.90;;;;;;5015172;28;20037;-74
2022/04/04 02:44:54;;;;;;;8.95;5.72;;;4.70;99.90;;;;;;4999061;28;20033;-74
2022/04/04 02:47:19;;;;;;;14.68;5.68;;;4.70;99.90;;;;;;4998682;28;20124;-74
2022/04/04 02:49:45;;;;;;;10.07;5.55;;;4.70;99.90;;;;;;5000315;28;20128;-74
2022/04/04 02:52:11;;;;;;;11.05;5.32;;;4.70;99.90;;;;;;5015603;28;20120;-74
2022/04/04 02:54:36;;;;;;;7.72;3.60;;;4.70;99.90;;;;;;5016907;28;20076;-74
2022/04/04 02:57:02;;;;;;;13.20;7.10;;;4.70;99.90;;;;;;5015487;28;20080;-74
2022/04/04 02:59:28;;;;;;;14.98;7.35;;;4.60;99.90;;;;;;5016591;28;20034;-74
2022/04/04 03:01:53;;;;;;;15.88;9.60;;;4.70;99.90;;;;;;4999419;28;20185;-74
2022/04/04 03:04:19;;;;;;;8.85;5.50;;;4.70;99.90;;;;;;5016304;28;20041;-74
2022/04/04 03:06:45;;;;;;;9.73;4.72;;;4.80;99.90;;;;;;5015434;28;20052;-74
2022/04/04 03:09:11;;;;;;;9.23;5.82;;;4.80;99.90;;;;;;5016679;28;20033;-74
2022/04/04 03:11:37;;;;;;;11.73;6.78;;;4.90;99.90;;;;;;5015554;28;20052;-74
2022/04/04 03:14:03;;;;;;;10.82;5.85;;;4.90;99.90;;;;;;5000215;28;20400;-74
2022/04/04 03:16:29;;;;;;;12.43;6.63;;;4.80;99.90;;;;;;5015566;28;20088;-74
2022/04/04 03:18:55;;;;;;;7.10;4.05;;;4.90;99.90;;;;;;5016098;28;20068;-74
2022/04/04 03:21:21;;;;;;;10.70;6.00;;;5.00;99.90;;;;;;5014133;28;20500;-74
2022/04/04 03:23:47;;;;;;;10.55;6.13;;;4.90;99.90;;;;;;5016229;28;20037;-74
2022/04/04 03:26:13;;;;;;;10.13;4.65;;;5.00;99.90;;;;;;4998179;28;20034;-74
2022/04/04 03:28:39;;;;;;;13.88;6.47;;;5.00;99.90;;;;;;4999921;28;20053;-74
2022/04/04 03:31:05;;;;;;;11.38;5.28;;;5.00;99.90;;;;;;5015115;28;20041;-74
2022/04/04 03:33:32;;;;;;;11.48;6.00;;;5.10;99.90;;;;;;4999615;28;20123;-74
2022/04/04 03:36:01;;;;;;;13.73;5.80;;;5.10;99.90;;;;;;5015015;28;20041;-74
2022/04/04 03:38:28;;;;;;;12.45;7.35;;;5.10;99.90;;;;;;5015795;28;20041;-74
2022/04/04 03:40:54;;;;;;;13.18;6.22;;;5.10;99.90;;;;;;5014138;28;20049;-74
2022/04/04 03:43:20;;;;;;;13.73;7.93;;;5.10;99.90;;;;;;5016086;28;20034;-74
2022/04/04 03:45:46;;;;;;;11.80;6.53;;;5.20;99.90;;;;;;5015007;28;20191;-74
2022/04/04 03:48:12;;;;;;;11.98;7.22;;;5.20;99.90;;;;;;5015976;28;20397;-74
2022/04/04 03:50:38;;;;;;;10.38;5.78;;;5.30;99.90;;;;;;4998564;28;20045;-75
2022/04/04 03:53:05;;;;;;;12.27;7.57;;;5.30;99.90;;;;;;5015403;28;20041;-74
2022/04/04 03:55:37;;;;;;;14.05;6.90;;;5.30;99.90;;;;;;4999531;28;20393;-74
2022/04/04 03:58:03;;;;;;;14.82;8.05;;;5.30;99.90;;;;;;5015548;28;20354;-74
2022/04/04 04:00:29;;;;;;;13.32;6.72;;;5.30;99.90;;;;;;4999470;28;20508;-75
2022/04/04 04:02:55;;;;;;;9.80;5.60;;;5.40;99.90;;;;;;5015121;28;20037;-74
2022/04/04 04:05:21;;;;;;;10.73;6.30;;;5.40;99.90;;;;;;5015866;28;20087;-74
2022/04/04 04:07:47;;;;;;;11.13;6.53;;;5.40;99.90;;;;;;5014856;28;20495;-74
2022/04/04 04:10:13;;;;;;;11.57;7.55;;;5.50;99.90;;;;;;4999480;28;20056;-74
2022/04/04 04:12:40;;;;;;;10.65;7.53;;;5.40;99.90;;;;;;5014627;28;20494;-74
2022/04/04 04:15:08;;;;;;;13.75;7.28;;;5.50;99.90;;;;;;5015457;28;20485;-74
2022/04/04 04:17:34;;;;;;;13.52;8.15;;;5.50;99.90;;;;;;5000232;28;20052;-75
2022/04/04 04:22:45;;;;;;;15.95;7.82;;;5.50;99.90;;;;;;5016871;28;20489;-75
2022/04/04 04:25:14;;;;;;;16.13;9.23;;;5.50;99.90;;;;;;5018375;28;20474;-74
2022/04/04 04:27:40;;;;;;;14.55;9.10;;;5.50;99.90;;;;;;5003097;28;20037;-74
2022/04/04 04:30:06;;;;;;;10.70;5.82;;;5.50;99.90;;;;;;5001902;28;20493;-74
2022/04/04 04:32:32;;;;;;;7.95;4.93;;;5.60;99.90;;;;;;5002124;28;20048;-75
2022/04/04 04:34:58;;;;;;;11.82;7.07;;;5.60;99.90;;;;;;5001873;28;20041;-76
2022/04/04 04:37:24;;;;;;;15.07;9.52;;;5.60;99.90;;;;;;5003021;28;20405;-75
2022/04/04 04:39:49;;;;;;;12.65;6.93;;;5.60;99.90;;;;;;5019006;28;20545;-75
2022/04/04 04:42:16;;;;;;;13.30;8.27;;;5.70;99.90;;;;;;5001427;28;20041;-75
2022/04/04 04:44:42;;;;;;;13.25;8.27;;;5.70;99.90;;;;;;5002779;28;20033;-74
2022/04/04 04:47:08;;;;;;;13.02;7.80;;;5.60;99.90;;;;;;5018100;28;20046;-75
2022/04/04 04:49:34;;;;;;;13.20;7.63;;;5.60;99.90;;;;;;5002672;28;20141;-75
2022/04/04 04:52:00;;;;;;;12.80;7.88;;;5.70;99.90;;;;;;5001944;28;20045;-75
2022/04/04 04:54:26;;;;;;;14.20;7.55;;;5.70;99.90;;;;;;5018872;28;20409;-75
2022/04/04 04:56:52;;;;;;;12.98;6.78;;;5.70;99.90;;;;;;5001704;28;20128;-75
2022/04/04 04:59:17;;;;;;;8.60;5.28;;;5.70;99.90;;;;;;5001637;28;20037;-75
2022/04/04 05:01:43;;;;;;;13.48;7.70;;;5.70;99.90;;;;;;5002390;28;20029;-75
2022/04/04 05:04:09;;;;;;;12.50;6.60;;;5.60;99.90;;;;;;5001818;28;20160;-75
2022/04/04 05:06:34;;;;;;;11.23;7.45;;;5.70;99.90;;;;;;5018672;28;20120;-75
2022/04/04 05:09:00;;;;;;;13.82;7.78;;;5.70;99.90;;;;;;5000407;28;20041;-75
2022/04/04 05:11:26;;;;;;;10.07;6.00;;;5.70;99.90;;;;;;5018484;28;20049;-75
2022/04/04 05:13:52;;;;;;;10.65;6.03;;;5.70;99.90;;;;;;4997245;28;20046;-75
2022/04/04 05:16:18;;;;;;;11.82;5.97;;;5.60;99.90;;;;;;5018783;28;20038;-75
2022/04/04 05:18:44;;;;;;;15.52;9.85;;;5.70;99.90;;;;;;5001139;28;20087;-75
2022/04/04 05:21:11;;;;;;;12.15;6.38;;;5.60;99.90;;;;;;5018286;28;20050;-75
2022/04/04 05:23:38;;;;;;;10.80;4.95;;;5.60;99.90;;;;;;5001293;28;20409;-75
2022/04/04 05:26:05;;;;;;;8.98;5.63;;;5.60;99.90;;;;;;5001976;28;20045;-75
2022/04/04 05:28:31;;;;;;;14.70;9.15;;;5.60;99.90;;;;;;5017647;28;20448;-75
2022/04/04 05:30:57;;;;;;;12.52;7.68;;;5.60;99.90;;;;;;5016323;28;20041;-75
2022/04/04 05:33:24;;;;;;;12.25;7.18;;;5.50;99.90;;;;;;5017321;28;20456;-75
2022/04/04 05:35:50;;;;;;;11.05;6.53;;;5.60;99.90;;;;;;5000733;28;20033;-75
2022/04/04 05:38:15;;;;;;;13.98;6.90;;;5.60;99.90;;;;;;5018068;28;20045;-75
2022/04/04 05:40:42;;;;;;;12.80;7.57;;;5.50;99.90;;;;;;5000779;28;20064;-75
2022/04/04 05:43:07;;;;;;;8.57;5.03;;;5.50;99.90;;;;;;5001894;28;20386;-75
2022/04/04 05:45:39;;;;;;;14.25;7.53;;;5.50;99.90;;;;;;5000763;28;20064;-74
2022/04/04 05:48:06;;;;;;;12.48;7.35;;;5.50;99.90;;;;;;5017926;28;20046;-74
2022/04/04 05:50:33;;;;;;;13.90;8.30;;;5.50;99.90;;;;;;5000772;28;20037;-74
2022/04/04 05:52:59;;;;;;;18.88;11.73;;;5.50;99.90;;;;;;5018047;28;20071;-74
2022/04/04 05:55:27;;;;;;;13.77;5.88;;;5.40;99.90;;;;;;5000843;28;20520;-74
2022/04/04 05:57:53;;;;;;;19.42;8.02;;;5.50;99.90;;;;;;5017687;28;20494;-75
2022/04/04 06:00:19;;;;;;;10.95;6.30;;;5.50;99.90;;;;;;5000698;28;20028;-75
2022/04/04 06:02:45;;;;;;;12.70;7.22;;;5.50;99.90;;;;;;5001284;28;20041;-75
2022/04/04 06:05:12;;;;;;;17.85;10.60;;;5.50;99.90;;;;;;5016635;28;20037;-75
2022/04/04 06:07:39;;;;;;;13.32;6.65;;;5.50;99.90;;;;;;5001291;28;20084;-75
2022/04/04 06:10:07;;;;;;;18.35;11.07;;;5.50;99.90;;;;;;5016780;28;20045;-75
2022/04/04 06:12:34;;;;;;;14.50;8.10;;;5.30;99.90;;;;;;5016265;28;20042;-76
2022/04/04 06:15:00;;;;;;;14.40;8.32;;;5.30;99.90;;;;;;5016381;28;20055;-75
2022/04/04 06:17:29;;;;;;;17.92;11.40;;;5.40;99.90;;;;;;5017161;28;20496;-75
2022/04/04 06:19:55;;;;;;;17.10;9.77;;;5.20;99.90;;;;;;4999390;28;20069;-75
2022/04/04 06:22:22;;;;;;;11.98;6.78;;;5.40;99.90;;;;;;5017046;28;20084;-75
2022/04/04 06:24:49;;;;;;;15.50;10.23;;;5.40;99.90;;;;;;4999942;28;20549;-75
2022/04/04 06:27:15;;;;;;;13.25;8.70;;;5.40;99.90;;;;;;5000841;28;20041;-74
2022/04/04 06:29:42;;;;;;;14.55;9.48;;;5.30;99.90;;;;;;5016116;28;20042;-75
2022/04/04 06:32:09;;;;;;;16.95;8.93;;;5.40;99.90;;;;;;4995946;28;20083;-74
2022/04/04 06:34:34;;;;;;;12.05;7.63;;;5.50;99.90;;;;;;5016817;28;20443;-74
2022/04/04 06:37:00;;;;;;;15.88;11.07;;;5.40;99.90;;;;;;4998487;28;20132;-74
2022/04/04 06:39:26;;;;;;;11.43;6.70;;;5.40;99.90;;;;;;4989172;28;20034;-74
2022/04/04 06:41:51;;;;;;;14.57;8.38;;;5.50;99.90;;;;;;4995533;28;20417;-74
2022/04/04 06:44:17;;;;;;;12.68;8.07;;;5.50;99.90;;;;;;5016185;28;20129;-75
2022/04/04 06:46:43;;;;;;;13.55;7.57;;;5.50;99.90;;;;;;5000708;28;20057;-75
2022/04/04 06:49:08;;;;;;;15.32;9.77;;;5.40;99.90;;;;;;5000345;28;20045;-75
2022/04/04 06:51:35;;;;;;;10.65;7.53;;;5.30;99.90;;;;;;4998964;28;20504;-75
2022/04/04 06:54:03;;;;;;;12.07;7.95;;;5.50;99.90;;;;;;4998416;28;20045;-75
2022/04/04 06:56:29;;;;;;;15.13;7.80;;;5.40;99.90;;;;;;5014635;28;20387;-76
2022/04/04 06:58:54;;;;;;;9.90;6.45;;;5.40;99.90;;;;;;5010532;28;20044;-74
2022/04/04 07:01:20;;;;;;;14.02;8.30;;;5.40;99.90;;;;;;4998779;28;20048;-75
2022/04/04 07:03:45;;;;;;;18.58;9.95;;;5.40;99.90;;;;;;5014334;28;20096;-74
2022/04/04 07:06:12;;;;;;;9.57;5.25;;;5.50;99.90;;;;;;5015932;28;20064;-75
2022/04/04 07:08:37;;;;;;;12.80;8.65;;;5.40;99.90;;;;;;5000240;28;20123;-75
2022/04/04 07:11:03;;;;;;;14.65;8.18;;;5.30;99.90;;;;;;5003535;28;20072;-75
2022/04/04 07:13:31;;;;;;;14.65;8.70;;;5.30;99.90;;;;;;5015067;28;20116;-74
2022/04/04 07:15:57;;;;;;;12.95;7.72;;;5.30;99.90;;;;;;4998933;28;20042;-75
2022/04/04 07:18:23;;;;;;;10.73;6.78;;;5.30;99.90;;;;;;4997782;28;20041;-75
2022/04/04 07:20:48;;;;;;;13.93;6.75;;;5.40;99.90;;;;;;5014595;28;20041;-75
2022/04/04 07:23:14;;;;;;;10.25;6.72;;;5.40;99.90;;;;;;4998710;28;20090;-75
2022/04/04 07:25:39;;;;;;;12.23;7.28;;;5.40;99.90;;;;;;4999585;28;20127;-75
2022/04/04 07:28:05;;;;;;;12.13;7.75;;;5.50;99.90;;;;;;5015637;28;20037;-75
2022/04/04 07:30:30;;;;;;;10.27;6.18;;;5.40;99.90;;;;;;5014759;28;20037;-75
2022/04/04 07:32:56;;;;;;;12.27;7.30;;;5.50;99.90;;;;;;5013598;28;20382;-74
2022/04/04 07:35:22;;;;;;;12.20;8.02;;;5.50;99.90;;;;;;5007760;28;20120;-75
2022/04/04 07:37:49;;;;;;;11.65;7.28;;;5.40;99.90;;;;;;5013509;28;20068;-74
2022/04/04 07:40:17;;;;;;;13.90;8.43;;;5.50;99.90;;;;;;4987481;28;20038;-75
2022/04/04 07:42:44;;;;;;;13.35;8.05;;;5.50;99.90;;;;;;4998320;28;20084;-74
2022/04/04 07:45:13;;;;;;;12.18;8.18;;;5.50;99.90;;;;;;5011968;28;20081;-74
2022/04/04 07:47:40;;;;;;;15.02;10.30;;;5.60;99.90;;;;;;5013246;28;20049;-74
2022/04/04 07:50:08;;;;;;;16.42;10.88;;;5.50;99.90;;;;;;5012115;28;20052;-74
2022/04/04 07:52:34;;;;;;;13.88;7.30;;;5.50;99.90;;;;;;5014149;28;20429;-74
2022/04/04 07:55:00;;;;;;;14.75;8.00;;;5.50;99.90;;;;;;5013654;28;20071;-74
2022/04/04 07:57:25;;;;;;;13.18;8.57;;;5.50;99.90;;;;;;4995050;28;20485;-74
2022/04/04 07:59:51;;;;;;;13.07;7.68;;;5.60;99.90;;;;;;5003296;28;20033;-75
2022/04/04 08:02:18;;;;;;;16.38;8.77;;;5.50;99.90;;;;;;5002785;28;20038;-77
2022/04/04 08:04:43;;;;;;;12.93;7.47;;;5.50;99.90;;;;;;4995547;28;20045;-74
2022/04/04 08:07:09;;;;;;;11.25;6.78;;;5.50;99.90;;;;;;4998302;28;20508;-74
2022/04/04 08:09:34;;;;;;;12.32;7.82;;;5.70;99.90;;;;;;4997501;28;20029;-73
2022/04/04 08:12:00;;;;;;;15.85;9.88;;;5.70;99.90;;;;;;5013008;28;20503;-74
2022/04/04 08:14:26;;;;;;;12.95;9.18;;;5.60;99.90;;;;;;5014348;28;20046;-73
2022/04/04 08:16:52;;;;;;;15.45;7.20;;;5.70;99.90;;;;;;4997090;28;20068;-73
2022/04/04 08:19:18;;;;;;;13.82;8.25;;;5.80;99.90;;;;;;5010007;28;20068;-74
2022/04/04 08:21:44;;;;;;;9.77;5.93;;;5.80;99.90;;;;;;4994683;28;20069;-73
2022/04/04 08:24:11;;;;;;;8.80;5.00;;;5.80;99.90;;;;;;4994718;28;20111;-73
2022/04/04 08:26:37;;;;;;;11.68;6.38;;;5.90;99.90;;;;;;4998174;28;20066;-74
2022/04/04 08:29:03;;;;;;;11.13;7.00;;;5.90;99.90;;;;;;4998258;28;20057;-73
2022/04/04 08:31:28;;;;;;;9.05;6.20;;;5.80;99.90;;;;;;5014283;28;20132;-73
2022/04/04 08:33:54;;;;;;;9.60;6.22;;;5.80;99.90;;;;;;5014244;28;20033;-74
2022/04/04 08:36:20;;;;;;;8.88;5.30;;;5.90;99.90;;;;;;5011591;28;20037;-74
2022/04/04 08:38:46;;;;;;;9.85;4.63;;;5.90;99.90;;;;;;4998110;28;20088;-74
2022/04/04 08:41:11;;;;;;;9.50;5.45;;;5.90;99.90;;;;;;4990576;28;20033;-74
2022/04/04 08:43:40;;;;;;;9.00;5.70;;;5.90;99.90;;;;;;5013620;28;20040;-73
2022/04/04 08:46:06;;;;;;;10.38;4.85;;;5.90;99.90;;;;;;5013321;28;20068;-73
2022/04/04 08:48:39;;;;;;;9.85;4.45;;;6.00;99.90;;;;;;4996160;28;20440;-74
2022/04/04 08:51:09;;;;;;;8.63;4.90;;;6.10;99.90;;;;;;5012710;28;20045;-74
2022/04/04 08:53:36;;;;;;;7.82;4.20;;;6.00;99.90;;;;;;5014184;28;20045;-73
2022/04/04 08:56:04;;;;;;;9.23;4.72;;;6.00;99.90;;;;;;5006644;28;20041;-74
2022/04/04 08:58:30;;;;;;;9.73;4.53;;;6.00;99.90;;;;;;5011099;28;20037;-74
2022/04/04 09:00:55;;;;;;;7.38;3.85;;;5.90;99.90;;;;;;5008325;28;20037;-74
2022/04/04 09:03:23;;;;;;;7.70;3.45;;;6.10;99.90;;;;;;5016203;28;20072;-73
2022/04/04 09:05:51;;;;;;;8.77;3.75;;;6.10;99.90;;;;;;5001957;28;20115;-74
2022/04/04 09:08:18;;;;;;;5.93;2.65;;;6.20;99.90;;;;;;5002140;28;20049;-74
2022/04/04 09:10:45;;;;;;;5.60;2.90;;;6.20;99.90;;;;;;5017279;28;20045;-73
2022/04/04 09:13:12;;;;;;;7.35;2.63;;;6.20;99.90;;;;;;5001708;28;20041;-73
2022/04/04 09:15:56;;;;;;;6.30;2.95;;;6.40;99.90;;;;;;4999207;28;20061;-74
2022/04/04 09:18:40;;;;;;;5.57;2.17;;;6.40;99.90;;;;;;5001860;28;20424;-74
2022/04/04 09:21:13;;;;;;;6.65;2.63;;;6.40;99.90;;;;;;4999893;28;20030;-73
2022/04/04 09:23:42;;;;;;;5.63;2.17;;;6.20;99.90;;;;;;5016967;28;20056;-74
2022/04/04 09:26:28;;;;;;;3.85;1.95;;;6.30;99.90;;;;;;4997977;28;20041;-74
2022/04/04 09:28:55;;;;;;;4.88;2.50;;;6.40;99.90;;;;;;5004672;28;20075;-74
2022/04/04 09:31:20;;;;;;;5.88;2.30;;;6.40;99.90;;;;;;5016017;28;20037;-74
2022/04/04 09:33:46;;;;;;;5.30;2.38;;;6.20;99.90;;;;;;5016196;28;20512;-74
2022/04/04 09:36:12;;;;;;;4.25;1.80;;;6.30;99.90;;;;;;5017335;28;20079;-74
2022/04/04 09:38:43;;;;;;;4.85;2.15;;;6.40;99.90;;;;;;5000471;28;20029;-74
2022/04/04 09:41:14;;;;;;;6.00;1.92;;;6.40;99.90;;;;;;5017734;28;20045;-74
2022/04/04 09:43:50;;;;;;;3.00;1.33;;;6.60;99.90;;;;;;5000862;28;20146;-74
2022/04/04 09:46:15;;;;;;;4.28;1.63;;;6.50;99.90;;;;;;4996779;28;20073;-75
2022/04/04 09:49:14;;;;;;;4.93;2.22;;;6.50;99.90;;;;;;5005415;28;20049;-74
2022/04/04 09:51:39;;;;;;;5.55;2.25;;;6.60;99.90;;;;;;5004613;28;20038;-74
2022/04/04 09:54:08;;;;;;;5.25;1.85;;;6.50;99.90;;;;;;5013203;28;20052;-74
2022/04/04 09:56:34;;;;;;;2.72;1.73;;;6.60;99.90;;;;;;5017246;28;20083;-74
2022/04/04 09:59:00;;;;;;;5.60;2.22;;;6.60;99.90;;;;;;5000947;28;20510;-74
2022/04/04 10:01:27;;;;;;;3.00;1.58;;;6.50;99.90;;;;;;4996643;28;20129;-74
2022/04/04 10:03:55;;;;;;;3.95;2.08;;;6.50;99.90;;;;;;5011898;28;20038;-74
2022/04/04 10:06:22;;;;;;;6.28;1.85;;;6.60;99.90;;;;;;4999827;28;20489;-74
2022/04/04 10:08:54;;;;;;;3.13;1.65;;;6.80;99.90;;;;;;5010079;28;20049;-74
2022/04/04 10:11:21;;;;;;;3.58;1.40;;;6.70;99.90;;;;;;5014384;28;20037;-74
2022/04/04 10:13:47;;;;;;;5.55;2.58;;;6.70;99.90;;;;;;5013504;28;20049;-74
2022/04/04 10:16:13;;;;;;;5.28;2.08;;;6.60;99.90;;;;;;5015245;28;20040;-75
2022/04/04 10:18:43;;;;;;;7.82;2.10;;;6.60;99.90;;;;;;5014324;28;20051;-74
2022/04/04 10:21:10;;;;;;;4.72;1.65;;;6.70;99.90;;;;;;5011551;28;20029;-74
2022/04/04 10:23:40;;;;;;;8.23;1.88;;;6.60;99.90;;;;;;4994218;28;20048;-74
2022/04/04 10:26:09;;;;;;;6.35;1.98;;;6.70;99.90;;;;;;4995186;28;20045;-74
2022/04/04 10:28:37;;;;;;;6.07;2.15;;;6.70;99.90;;;;;;5016659;28;20095;-74
2022/04/04 10:31:12;;;;;;;6.50;2.80;;;6.80;99.90;;;;;;4997368;28;20458;-74
2022/04/04 10:33:38;;;;;;;7.75;2.20;;;6.80;99.90;;;;;;5016759;28;20375;-74
2022/04/04 10:36:06;;;;;;;4.15;1.95;;;6.80;99.90;;;;;;5014003;28;20099;-74
2022/04/04 10:38:34;;;;;;;5.97;2.08;;;6.90;99.90;;;;;;5011677;28;20056;-73
2022/04/04 10:41:03;;;;;;;6.28;2.40;;;7.00;99.90;;;;;;5014963;28;20099;-74
2022/04/04 10:43:37;;;;;;;3.55;1.80;;;6.80;99.90;;;;;;5013717;28;20030;-74
2022/04/04 10:46:08;;;;;;;3.50;1.60;;;6.80;99.90;;;;;;5014128;28;20069;-74
2022/04/04 10:48:36;;;;;;;6.38;2.63;;;6.90;99.90;;;;;;5000239;28;20045;-74
2022/04/04 10:51:12;;;;;;;5.90;2.05;;;7.00;99.90;;;;;;5015558;28;20079;-74
2022/04/04 10:53:46;;;;;;;4.00;2.08;;;7.00;99.90;;;;;;4998497;28;20041;-74
2022/04/04 10:56:17;;;;;;;4.47;2.17;;;7.10;99.90;;;;;;5015167;28;20040;-74
2022/04/04 10:58:43;;;;;;;6.80;2.03;;;7.10;99.90;;;;;;5015158;28;20060;-74
2022/04/04 11:01:15;;;;;;;4.88;1.73;;;7.10;99.90;;;;;;4998764;28;20033;-74
2022/04/04 11:03:42;;;;;;;;;;;7.00;99.90;;;;;;5013907;28;20048;-74
2022/04/04 11:09:01;;;;;;;3.28;1.55;;;7.10;99.90;;;;;;5013545;28;20041;-75
2022/04/04 11:11:58;;;;;;;4.25;1.73;;;7.00;99.90;;;;;;4998078;28;20041;-74
2022/04/04 11:14:27;;;;;;;3.85;1.95;;;7.00;99.90;;;;;;4995230;28;20049;-74
2022/04/04 11:17:17;;;;;;;3.53;1.48;;;7.20;99.90;;;;;;5011984;28;20055;-74
2022/04/04 11:19:57;;;;;;;3.25;1.50;;;7.20;99.90;;;;;;5013866;28;20151;-75
2022/04/04 11:22:26;;;;;;;4.32;1.80;;;7.20;99.90;;;;;;4999216;28;20053;-74
2022/04/04 11:25:13;;;;;;;5.38;1.90;;;7.20;99.90;;;;;;4987701;28;20051;-75
2022/04/04 11:27:40;;;;;;;2.95;1.70;;;7.20;99.90;;;;;;5001091;28;20124;-75
2022/04/04 11:30:11;;;;;;;6.43;2.08;;;7.20;99.90;;;;;;5014773;28;20057;-75
2022/04/04 11:32:40;;;;;;;3.22;1.20;;;7.20;99.90;;;;;;5013904;28;20038;-75
2022/04/04 11:35:23;;;;;;;2.50;1.15;;;7.30;99.90;;;;;;5013320;28;20068;-75
2022/04/04 11:37:50;;;;;;;3.33;1.27;;;7.40;99.90;;;;;;5014843;28;20038;-75
2022/04/04 11:40:18;;;;;;;3.22;1.27;;;7.40;99.90;;;;;;5015310;28;20313;-75
2022/04/04 11:42:51;;;;;;;3.85;1.35;;;7.50;99.90;;;;;;4999080;28;20045;-75
2022/04/04 11:45:25;;;;;;;2.10;1.10;;;7.60;99.90;;;;;;5013445;28;20038;-74
2022/04/04 11:47:56;;;;;;;1.98;1.20;;;7.60;99.90;;;;;;4998959;28;20051;-75
2022/04/04 11:50:25;;;;;;;1.45;0.90;;;7.50;99.90;;;;;;4995838;28;20621;-75
2022/04/04 11:52:59;;;;;;;2.92;1.08;;;7.50;99.90;;;;;;5007483;28;20444;-75
2022/04/04 11:55:27;;;;;;;1.38;1.00;;;7.50;99.90;;;;;;4995925;28;20486;-75
2022/04/04 11:58:01;;;;;;;2.15;0.88;;;7.60;99.90;;;;;;4984089;28;20533;-75
2022/04/04 12:00:33;;;;;;;4.38;1.20;;;7.70;99.90;;;;;;5015632;28;20553;-75
2022/04/04 12:03:04;;;;;;;3.15;1.10;;;7.70;99.90;;;;;;5013623;28;20092;-75
2022/04/04 12:05:33;;;;;;;1.70;1.30;;;7.80;99.90;;;;;;4998652;28;20052;-75
2022/04/04 12:08:00;;;;;;;1.42;0.90;;;7.80;99.90;;;;;;4995697;28;20041;-75
2022/04/04 12:10:35;;;;;;;2.60;0.80;;;7.70;99.90;;;;;;5007692;28;20041;-75
2022/04/04 12:13:09;;;;;;;1.42;0.70;;;7.80;99.90;;;;;;5015233;28;20091;-75
2022/04/04 12:15:37;;;;;;;2.65;0.82;;;7.70;99.90;;;;;;4995317;28;20370;-75
2022/04/04 12:18:04;;;;;;;0.98;0.60;;;7.70;99.90;;;;;;4998306;28;20042;-75
2022/04/04 12:20:36;;;;;;;1.23;0.60;;;7.80;99.90;;;;;;4997384;28;20072;-75
2022/04/04 12:25:48;;;;;;;1.27;0.75;;;7.80;99.90;;;;;;5015252;28;20042;-75
2022/04/04 12:28:32;;;;;;;1.40;0.73;;;7.80;99.90;;;;;;5014365;28;20037;-76
2022/04/04 12:31:19;;;;;;;0.73;0.68;;;7.90;99.90;;;;;;4998488;28;20080;-75
2022/04/04 12:33:52;;;;;;;1.95;1.00;;;7.90;99.90;;;;;;4998834;28;20041;-75
2022/04/04 12:36:31;;;;;;;0.88;0.60;;;7.80;99.90;;;;;;5012357;28;20508;-75
2022/04/04 12:39:00;;;;;;;3.13;0.90;;;8.00;99.90;;;;;;4995259;28;20497;-75
2022/04/04 12:41:26;;;;;;;1.42;0.65;;;8.00;99.90;;;;;;4991758;28;20033;-76
2022/04/04 12:44:00;;;;;;;1.55;0.70;;;8.10;99.90;;;;;;5016442;28;20046;-75
2022/04/04 12:46:28;;;;;;;0.60;0.60;;;7.90;99.90;;;;;;5018884;28;20481;-76
2022/04/04 12:49:07;;;;;;;1.35;0.63;;;8.00;99.90;;;;;;5014764;28;20048;-75
2022/04/04 12:51:34;;;;;;;0.55;0.50;;;8.10;99.90;;;;;;5011377;28;20531;-76
2022/04/04 12:54:03;;;;;;;1.33;0.70;;;8.00;99.90;;;;;;5017702;28;20100;-75
2022/04/04 12:56:32;;;;;;;0.60;0.57;;;8.00;99.90;;;;;;5014093;28;20404;-75
2022/04/04 12:59:10;;;;;;;1.95;0.70;;;8.00;99.90;;;;;;4985376;28;20065;-75
2022/04/04 13:01:36;;;;;;;0.55;0.55;;;8.10;99.90;;;;;;5010394;28;20150;-75
2022/04/04 13:04:19;;;;;;;0.93;0.77;;;8.20;99.90;;;;;;5001373;28;20121;-76